sensor_id;sensor_type;location;lat;lon;timestamp;P1;durP1;ratioP1;P2;durP2;ratioP2
58978;SDS011;44763;50.464;30.612;2022-07-03T00:02:17;1.95;;;0.95;;
58978;SDS011;44763;50.464;30.612;2022-07-03T00:04:43;1.37;;;0.68;;
58978;SDS011;44763;50.464;30.612;2022-07-03T00:07:10;2.50;;;1.22;;
58978;SDS011;44763;50.464;30.612;2022-07-03T00:09:37;0.70;;;0.60;;
58978;SDS011;44763;50.464;30.612;2022-07-03T00:12:04;0.78;;;0.78;;
58978;SDS011;44763;50.464;30.612;2022-07-03T00:14:31;2.87;;;1.45;;
58978;SDS011;44763;50.464;30.612;2022-07-03T00:16:58;3.08;;;1.20;;
58978;SDS011;44763;50.464;30.612;2022-07-03T00:19:25;3.58;;;1.15;;
58978;SDS011;44763;50.464;30.612;2022-07-03T00:21:53;2.35;;;1.62;;
58978;SDS011;44763;50.464;30.612;2022-07-03T00:27:03;2.25;;;1.62;;
58978;SDS011;44763;50.464;30.612;2022-07-03T00:29:36;9.23;;;2.00;;
58978;SDS011;44763;50.464;30.612;2022-07-03T00:32:05;3.40;;;1.22;;
58978;SDS011;44763;50.464;30.612;2022-07-03T00:34:35;1.87;;;1.35;;
58978;SDS011;44763;50.464;30.612;2022-07-03T00:37:02;6.30;;;1.92;;
58978;SDS011;44763;50.464;30.612;2022-07-03T00:39:32;4.12;;;1.50;;
58978;SDS011;44763;50.464;30.612;2022-07-03T00:42:06;1.87;;;1.15;;
58978;SDS011;44763;50.464;30.612;2022-07-03T00:46:43;6.45;;;1.35;;
58978;SDS011;44763;50.464;30.612;2022-07-03T00:49:13;1.32;;;1.22;;
58978;SDS011;44763;50.464;30.612;2022-07-03T00:51:42;3.40;;;1.45;;
58978;SDS011;44763;50.464;30.612;2022-07-03T00:54:10;3.10;;;1.25;;
58978;SDS011;44763;50.464;30.612;2022-07-03T00:56:41;2.27;;;0.88;;
58978;SDS011;44763;50.464;30.612;2022-07-03T00:59:13;5.37;;;1.45;;
58978;SDS011;44763;50.464;30.612;2022-07-03T01:04:21;1.57;;;1.40;;
58978;SDS011;44763;50.464;30.612;2022-07-03T01:06:59;3.12;;;1.02;;
58978;SDS011;44763;50.464;30.612;2022-07-03T01:09:29;2.47;;;1.20;;
58978;SDS011;44763;50.464;30.612;2022-07-03T01:12:23;5.28;;;1.80;;
58978;SDS011;44763;50.464;30.612;2022-07-03T01:17:38;2.58;;;1.80;;
58978;SDS011;44763;50.464;30.612;2022-07-03T01:20:06;1.37;;;1.27;;
58978;SDS011;44763;50.464;30.612;2022-07-03T01:22:35;1.05;;;0.93;;
58978;SDS011;44763;50.464;30.612;2022-07-03T01:33:11;2.58;;;1.02;;
58978;SDS011;44763;50.464;30.612;2022-07-03T01:38:34;2.98;;;1.47;;
58978;SDS011;44763;50.464;30.612;2022-07-03T01:41:04;2.10;;;2.00;;
58978;SDS011;44763;50.464;30.612;2022-07-03T01:43:39;4.85;;;3.90;;
58978;SDS011;44763;50.464;30.612;2022-07-03T01:46:08;5.35;;;4.58;;
58978;SDS011;44763;50.464;30.612;2022-07-03T01:48:38;2.27;;;2.17;;
58978;SDS011;44763;50.464;30.612;2022-07-03T01:51:09;5.33;;;4.83;;
58978;SDS011;44763;50.464;30.612;2022-07-03T01:53:42;3.92;;;2.20;;
58978;SDS011;44763;50.464;30.612;2022-07-03T01:56:12;3.52;;;3.10;;
58978;SDS011;44763;50.464;30.612;2022-07-03T01:58:45;5.12;;;4.72;;
58978;SDS011;44763;50.464;30.612;2022-07-03T02:01:31;2.50;;;2.33;;
58978;SDS011;44763;50.464;30.612;2022-07-03T02:07:15;4.30;;;1.60;;
58978;SDS011;44763;50.464;30.612;2022-07-03T02:09:49;1.85;;;1.17;;
58978;SDS011;44763;50.464;30.612;2022-07-03T02:13:08;3.37;;;3.02;;
58978;SDS011;44763;50.464;30.612;2022-07-03T02:15:24;1.92;;;1.32;;
58978;SDS011;44763;50.464;30.612;2022-07-03T02:17:57;8.45;;;1.87;;
58978;SDS011;44763;50.464;30.612;2022-07-03T02:20:27;1.87;;;1.77;;
58978;SDS011;44763;50.464;30.612;2022-07-03T02:22:59;1.30;;;1.17;;
58978;SDS011;44763;50.464;30.612;2022-07-03T02:25:33;3.80;;;0.80;;
58978;SDS011;44763;50.464;30.612;2022-07-03T02:28:17;3.17;;;0.90;;
58978;SDS011;44763;50.464;30.612;2022-07-03T02:31:09;1.72;;;1.55;;
58978;SDS011;44763;50.464;30.612;2022-07-03T02:33:36;1.62;;;0.78;;
58978;SDS011;44763;50.464;30.612;2022-07-03T02:36:05;2.87;;;0.90;;
58978;SDS011;44763;50.464;30.612;2022-07-03T02:38:36;2.75;;;0.62;;
58978;SDS011;44763;50.464;30.612;2022-07-03T02:41:14;2.15;;;0.60;;
58978;SDS011;44763;50.464;30.612;2022-07-03T02:43:43;1.85;;;0.90;;
58978;SDS011;44763;50.464;30.612;2022-07-03T02:46:34;3.45;;;0.88;;
58978;SDS011;44763;50.464;30.612;2022-07-03T02:49:42;1.92;;;1.12;;
58978;SDS011;44763;50.464;30.612;2022-07-03T03:03:37;1.02;;;0.82;;
58978;SDS011;44763;50.464;30.612;2022-07-03T03:06:12;3.87;;;0.50;;
58978;SDS011;44763;50.464;30.612;2022-07-03T03:08:48;5.83;;;0.85;;
58978;SDS011;44763;50.464;30.612;2022-07-03T03:11:23;4.15;;;0.45;;
58978;SDS011;44763;50.464;30.612;2022-07-03T03:13:58;0.72;;;0.45;;
58978;SDS011;44763;50.464;30.612;2022-07-03T03:16:27;1.32;;;0.60;;
58978;SDS011;44763;50.464;30.612;2022-07-03T03:18:54;1.80;;;0.33;;
58978;SDS011;44763;50.464;30.612;2022-07-03T03:21:21;0.47;;;0.30;;
58978;SDS011;44763;50.464;30.612;2022-07-03T03:23:51;1.70;;;0.50;;
58978;SDS011;44763;50.464;30.612;2022-07-03T03:26:19;2.30;;;0.53;;
58978;SDS011;44763;50.464;30.612;2022-07-03T03:28:48;0.95;;;0.42;;
58978;SDS011;44763;50.464;30.612;2022-07-03T03:31:17;1.05;;;0.42;;
58978;SDS011;44763;50.464;30.612;2022-07-03T03:33:46;1.17;;;0.37;;
58978;SDS011;44763;50.464;30.612;2022-07-03T03:36:18;2.33;;;0.53;;
58978;SDS011;44763;50.464;30.612;2022-07-03T03:38:47;1.70;;;0.82;;
58978;SDS011;44763;50.464;30.612;2022-07-03T03:41:15;1.47;;;0.60;;
58978;SDS011;44763;50.464;30.612;2022-07-03T03:43:42;3.92;;;3.65;;
58978;SDS011;44763;50.464;30.612;2022-07-03T03:46:09;4.03;;;2.95;;
58978;SDS011;44763;50.464;30.612;2022-07-03T03:48:35;2.22;;;2.05;;
58978;SDS011;44763;50.464;30.612;2022-07-03T03:51:02;3.80;;;3.22;;
58978;SDS011;44763;50.464;30.612;2022-07-03T03:53:31;6.85;;;5.62;;
58978;SDS011;44763;50.464;30.612;2022-07-03T03:56:00;4.10;;;3.70;;
58978;SDS011;44763;50.464;30.612;2022-07-03T03:58:34;6.78;;;3.70;;
58978;SDS011;44763;50.464;30.612;2022-07-03T04:01:04;6.12;;;4.53;;
58978;SDS011;44763;50.464;30.612;2022-07-03T04:03:33;2.33;;;2.12;;
58978;SDS011;44763;50.464;30.612;2022-07-03T04:06:01;1.72;;;1.50;;
58978;SDS011;44763;50.464;30.612;2022-07-03T04:08:29;2.70;;;1.77;;
58978;SDS011;44763;50.464;30.612;2022-07-03T04:10:56;2.02;;;0.53;;
58978;SDS011;44763;50.464;30.612;2022-07-03T04:13:23;2.77;;;0.95;;
58978;SDS011;44763;50.464;30.612;2022-07-03T04:15:50;4.22;;;1.82;;
58978;SDS011;44763;50.464;30.612;2022-07-03T04:18:19;4.62;;;0.60;;
58978;SDS011;44763;50.464;30.612;2022-07-03T04:20:46;0.80;;;0.40;;
58978;SDS011;44763;50.464;30.612;2022-07-03T04:23:12;3.55;;;2.22;;
58978;SDS011;44763;50.464;30.612;2022-07-03T04:25:39;2.83;;;2.05;;
58978;SDS011;44763;50.464;30.612;2022-07-03T04:28:06;0.50;;;0.30;;
58978;SDS011;44763;50.464;30.612;2022-07-03T04:30:32;1.47;;;1.02;;
58978;SDS011;44763;50.464;30.612;2022-07-03T04:32:58;3.83;;;3.50;;
58978;SDS011;44763;50.464;30.612;2022-07-03T04:35:25;1.80;;;1.10;;
58978;SDS011;44763;50.464;30.612;2022-07-03T04:37:51;4.00;;;2.60;;
58978;SDS011;44763;50.464;30.612;2022-07-03T04:40:17;2.98;;;0.60;;
58978;SDS011;44763;50.464;30.612;2022-07-03T04:42:43;4.20;;;0.53;;
58978;SDS011;44763;50.464;30.612;2022-07-03T04:45:11;3.42;;;1.52;;
58978;SDS011;44763;50.464;30.612;2022-07-03T04:47:38;4.72;;;4.33;;
58978;SDS011;44763;50.464;30.612;2022-07-03T04:50:04;3.62;;;1.50;;
58978;SDS011;44763;50.464;30.612;2022-07-03T04:52:34;10.38;;;9.58;;
58978;SDS011;44763;50.464;30.612;2022-07-03T04:55:00;14.90;;;11.78;;
58978;SDS011;44763;50.464;30.612;2022-07-03T04:57:27;10.32;;;8.80;;
58978;SDS011;44763;50.464;30.612;2022-07-03T04:59:54;5.53;;;5.12;;
58978;SDS011;44763;50.464;30.612;2022-07-03T05:02:20;0.80;;;0.72;;
58978;SDS011;44763;50.464;30.612;2022-07-03T05:04:46;1.65;;;0.93;;
58978;SDS011;44763;50.464;30.612;2022-07-03T05:07:14;1.70;;;0.68;;
58978;SDS011;44763;50.464;30.612;2022-07-03T05:09:40;0.95;;;0.35;;
58978;SDS011;44763;50.464;30.612;2022-07-03T05:12:07;2.67;;;0.40;;
58978;SDS011;44763;50.464;30.612;2022-07-03T05:14:33;2.30;;;0.75;;
58978;SDS011;44763;50.464;30.612;2022-07-03T05:16:59;1.17;;;0.40;;
58978;SDS011;44763;50.464;30.612;2022-07-03T05:19:26;0.72;;;0.37;;
58978;SDS011;44763;50.464;30.612;2022-07-03T05:21:53;0.53;;;0.50;;
58978;SDS011;44763;50.464;30.612;2022-07-03T05:24:19;3.05;;;0.50;;
58978;SDS011;44763;50.464;30.612;2022-07-03T05:26:48;2.05;;;0.70;;
58978;SDS011;44763;50.464;30.612;2022-07-03T05:29:14;5.58;;;0.53;;
58978;SDS011;44763;50.464;30.612;2022-07-03T05:31:40;3.50;;;0.60;;
58978;SDS011;44763;50.464;30.612;2022-07-03T05:34:06;3.80;;;0.30;;
58978;SDS011;44763;50.464;30.612;2022-07-03T05:36:34;2.37;;;0.35;;
58978;SDS011;44763;50.464;30.612;2022-07-03T05:39:00;1.25;;;0.50;;
58978;SDS011;44763;50.464;30.612;2022-07-03T05:41:45;2.70;;;0.50;;
58978;SDS011;44763;50.464;30.612;2022-07-03T05:44:14;4.05;;;0.20;;
58978;SDS011;44763;50.464;30.612;2022-07-03T05:46:40;3.35;;;0.20;;
58978;SDS011;44763;50.464;30.612;2022-07-03T05:49:08;1.05;;;0.60;;
58978;SDS011;44763;50.464;30.612;2022-07-03T05:51:34;1.52;;;0.40;;
58978;SDS011;44763;50.464;30.612;2022-07-03T05:54:00;0.20;;;0.20;;
58978;SDS011;44763;50.464;30.612;2022-07-03T05:56:26;2.90;;;0.40;;
58978;SDS011;44763;50.464;30.612;2022-07-03T05:58:54;10.88;;;6.22;;
58978;SDS011;44763;50.464;30.612;2022-07-03T06:01:20;4.25;;;0.40;;
58978;SDS011;44763;50.464;30.612;2022-07-03T06:03:49;1.55;;;0.30;;
58978;SDS011;44763;50.464;30.612;2022-07-03T06:06:15;4.47;;;0.53;;
58978;SDS011;44763;50.464;30.612;2022-07-03T06:08:41;1.77;;;0.35;;
58978;SDS011;44763;50.464;30.612;2022-07-03T06:11:07;1.95;;;0.33;;
58978;SDS011;44763;50.464;30.612;2022-07-03T06:13:33;1.02;;;0.50;;
58978;SDS011;44763;50.464;30.612;2022-07-03T06:16:00;0.53;;;0.33;;
58978;SDS011;44763;50.464;30.612;2022-07-03T06:18:26;1.27;;;0.50;;
58978;SDS011;44763;50.464;30.612;2022-07-03T06:20:53;1.95;;;0.68;;
58978;SDS011;44763;50.464;30.612;2022-07-03T06:23:19;0.47;;;0.28;;
58978;SDS011;44763;50.464;30.612;2022-07-03T06:25:45;4.97;;;0.85;;
58978;SDS011;44763;50.464;30.612;2022-07-03T06:28:11;0.95;;;0.60;;
58978;SDS011;44763;50.464;30.612;2022-07-03T06:30:38;0.88;;;0.53;;
58978;SDS011;44763;50.464;30.612;2022-07-03T06:33:04;3.27;;;0.80;;
58978;SDS011;44763;50.464;30.612;2022-07-03T06:35:31;3.30;;;0.50;;
58978;SDS011;44763;50.464;30.612;2022-07-03T06:38:00;0.72;;;0.72;;
58978;SDS011;44763;50.464;30.612;2022-07-03T06:40:29;1.27;;;0.78;;
58978;SDS011;44763;50.464;30.612;2022-07-03T06:42:56;3.05;;;0.40;;
58978;SDS011;44763;50.464;30.612;2022-07-03T06:45:25;2.80;;;0.42;;
58978;SDS011;44763;50.464;30.612;2022-07-03T06:47:52;1.55;;;1.00;;
58978;SDS011;44763;50.464;30.612;2022-07-03T06:50:18;1.07;;;0.35;;
58978;SDS011;44763;50.464;30.612;2022-07-03T06:52:44;3.45;;;0.95;;
58978;SDS011;44763;50.464;30.612;2022-07-03T06:55:10;1.17;;;0.72;;
58978;SDS011;44763;50.464;30.612;2022-07-03T06:57:37;1.57;;;0.60;;
58978;SDS011;44763;50.464;30.612;2022-07-03T07:00:05;1.47;;;0.60;;
58978;SDS011;44763;50.464;30.612;2022-07-03T07:02:32;0.98;;;0.40;;
58978;SDS011;44763;50.464;30.612;2022-07-03T07:04:59;2.85;;;0.47;;
58978;SDS011;44763;50.464;30.612;2022-07-03T07:07:25;6.70;;;0.60;;
58978;SDS011;44763;50.464;30.612;2022-07-03T07:09:51;0.75;;;0.37;;
58978;SDS011;44763;50.464;30.612;2022-07-03T07:12:17;1.65;;;0.70;;
58978;SDS011;44763;50.464;30.612;2022-07-03T07:14:44;2.72;;;0.60;;
58978;SDS011;44763;50.464;30.612;2022-07-03T07:17:11;0.75;;;0.40;;
58978;SDS011;44763;50.464;30.612;2022-07-03T07:19:37;1.75;;;0.95;;
58978;SDS011;44763;50.464;30.612;2022-07-03T07:22:04;1.12;;;0.60;;
58978;SDS011;44763;50.464;30.612;2022-07-03T07:24:33;1.00;;;0.82;;
58978;SDS011;44763;50.464;30.612;2022-07-03T07:26:59;1.22;;;0.62;;
58978;SDS011;44763;50.464;30.612;2022-07-03T07:29:26;3.30;;;0.42;;
58978;SDS011;44763;50.464;30.612;2022-07-03T07:31:52;5.37;;;0.80;;
58978;SDS011;44763;50.464;30.612;2022-07-03T07:34:18;1.32;;;0.65;;
58978;SDS011;44763;50.464;30.612;2022-07-03T07:36:44;3.30;;;0.72;;
58978;SDS011;44763;50.464;30.612;2022-07-03T07:39:11;11.03;;;1.75;;
58978;SDS011;44763;50.464;30.612;2022-07-03T07:41:37;2.77;;;0.98;;
58978;SDS011;44763;50.464;30.612;2022-07-03T07:44:04;2.80;;;0.72;;
58978;SDS011;44763;50.464;30.612;2022-07-03T07:46:30;2.37;;;0.57;;
58978;SDS011;44763;50.464;30.612;2022-07-03T07:48:57;3.05;;;0.70;;
58978;SDS011;44763;50.464;30.612;2022-07-03T07:51:23;2.47;;;0.90;;
58978;SDS011;44763;50.464;30.612;2022-07-03T07:53:49;1.42;;;0.50;;
58978;SDS011;44763;50.464;30.612;2022-07-03T07:56:17;1.92;;;0.62;;
58978;SDS011;44763;50.464;30.612;2022-07-03T07:58:44;2.20;;;0.60;;
58978;SDS011;44763;50.464;30.612;2022-07-03T08:01:09;2.47;;;0.50;;
58978;SDS011;44763;50.464;30.612;2022-07-03T08:03:54;3.00;;;0.78;;
58978;SDS011;44763;50.464;30.612;2022-07-03T08:06:39;5.00;;;0.68;;
58978;SDS011;44763;50.464;30.612;2022-07-03T08:09:05;4.42;;;0.90;;
58978;SDS011;44763;50.464;30.612;2022-07-03T08:11:32;1.42;;;0.85;;
58978;SDS011;44763;50.464;30.612;2022-07-03T08:14:00;0.82;;;0.70;;
58978;SDS011;44763;50.464;30.612;2022-07-03T08:16:26;0.68;;;0.57;;
58978;SDS011;44763;50.464;30.612;2022-07-03T08:18:52;2.65;;;0.85;;
58978;SDS011;44763;50.464;30.612;2022-07-03T08:21:19;2.77;;;1.25;;
58978;SDS011;44763;50.464;30.612;2022-07-03T08:23:45;1.22;;;0.80;;
58978;SDS011;44763;50.464;30.612;2022-07-03T08:26:11;1.20;;;0.80;;
58978;SDS011;44763;50.464;30.612;2022-07-03T08:28:37;0.75;;;0.72;;
58978;SDS011;44763;50.464;30.612;2022-07-03T08:31:04;4.92;;;0.78;;
58978;SDS011;44763;50.464;30.612;2022-07-03T08:33:31;1.75;;;0.53;;
58978;SDS011;44763;50.464;30.612;2022-07-03T08:35:57;2.58;;;0.80;;
58978;SDS011;44763;50.464;30.612;2022-07-03T08:38:24;5.05;;;1.00;;
58978;SDS011;44763;50.464;30.612;2022-07-03T08:40:57;2.45;;;1.12;;
58978;SDS011;44763;50.464;30.612;2022-07-03T08:43:25;1.82;;;0.65;;
58978;SDS011;44763;50.464;30.612;2022-07-03T08:45:54;4.62;;;0.60;;
58978;SDS011;44763;50.464;30.612;2022-07-03T08:48:22;2.12;;;0.80;;
58978;SDS011;44763;50.464;30.612;2022-07-03T08:50:49;1.25;;;0.82;;
58978;SDS011;44763;50.464;30.612;2022-07-03T08:53:17;7.97;;;1.20;;
58978;SDS011;44763;50.464;30.612;2022-07-03T08:55:47;2.05;;;0.65;;
58978;SDS011;44763;50.464;30.612;2022-07-03T08:58:14;7.47;;;1.40;;
58978;SDS011;44763;50.464;30.612;2022-07-03T09:00:42;2.77;;;1.27;;
58978;SDS011;44763;50.464;30.612;2022-07-03T09:03:10;0.95;;;0.93;;
58978;SDS011;44763;50.464;30.612;2022-07-03T09:05:38;2.05;;;1.07;;
58978;SDS011;44763;50.464;30.612;2022-07-03T09:08:08;1.22;;;0.70;;
58978;SDS011;44763;50.464;30.612;2022-07-03T09:10:36;13.28;;;1.27;;
58978;SDS011;44763;50.464;30.612;2022-07-03T09:13:03;3.65;;;1.10;;
58978;SDS011;44763;50.464;30.612;2022-07-03T09:15:30;5.15;;;1.10;;
58978;SDS011;44763;50.464;30.612;2022-07-03T09:18:01;1.87;;;0.60;;
58978;SDS011;44763;50.464;30.612;2022-07-03T09:20:40;2.87;;;1.17;;
58978;SDS011;44763;50.464;30.612;2022-07-03T09:31:16;1.00;;;0.98;;
58978;SDS011;44763;50.464;30.612;2022-07-03T09:34:00;2.17;;;0.82;;
58978;SDS011;44763;50.464;30.612;2022-07-03T09:36:42;1.22;;;0.93;;
58978;SDS011;44763;50.464;30.612;2022-07-03T09:42:00;2.55;;;1.30;;
58978;SDS011;44763;50.464;30.612;2022-07-03T09:44:39;1.37;;;1.27;;
58978;SDS011;44763;50.464;30.612;2022-07-03T09:47:17;2.30;;;1.10;;
58978;SDS011;44763;50.464;30.612;2022-07-03T10:00:23;2.47;;;1.32;;
58978;SDS011;44763;50.464;30.612;2022-07-03T10:03:05;6.60;;;1.05;;
58978;SDS011;44763;50.464;30.612;2022-07-03T10:05:38;3.15;;;1.30;;
58978;SDS011;44763;50.464;30.612;2022-07-03T10:08:08;1.50;;;0.60;;
58978;SDS011;44763;50.464;30.612;2022-07-03T10:10:43;3.52;;;0.93;;
58978;SDS011;44763;50.464;30.612;2022-07-03T10:13:12;2.35;;;0.93;;
58978;SDS011;44763;50.464;30.612;2022-07-03T10:15:40;2.15;;;0.90;;
58978;SDS011;44763;50.464;30.612;2022-07-03T10:18:09;3.20;;;0.98;;
58978;SDS011;44763;50.464;30.612;2022-07-03T10:20:45;3.17;;;1.40;;
58978;SDS011;44763;50.464;30.612;2022-07-03T10:23:11;1.92;;;1.75;;
58978;SDS011;44763;50.464;30.612;2022-07-03T10:25:41;4.67;;;1.98;;
58978;SDS011;44763;50.464;30.612;2022-07-03T10:28:14;4.72;;;1.95;;
58978;SDS011;44763;50.464;30.612;2022-07-03T10:30:44;1.50;;;1.10;;
58978;SDS011;44763;50.464;30.612;2022-07-03T10:33:12;1.35;;;1.05;;
58978;SDS011;44763;50.464;30.612;2022-07-03T10:35:41;5.20;;;1.07;;
58978;SDS011;44763;50.464;30.612;2022-07-03T10:39:02;2.98;;;1.10;;
58978;SDS011;44763;50.464;30.612;2022-07-03T10:41:05;3.75;;;1.12;;
58978;SDS011;44763;50.464;30.612;2022-07-03T10:44:06;1.98;;;0.70;;
58978;SDS011;44763;50.464;30.612;2022-07-03T10:46:52;3.98;;;0.98;;
58978;SDS011;44763;50.464;30.612;2022-07-03T10:49:18;2.70;;;1.02;;
58978;SDS011;44763;50.464;30.612;2022-07-03T10:51:58;7.80;;;1.35;;
58978;SDS011;44763;50.464;30.612;2022-07-03T10:54:28;4.83;;;1.12;;
58978;SDS011;44763;50.464;30.612;2022-07-03T11:07:31;4.17;;;1.32;;
58978;SDS011;44763;50.464;30.612;2022-07-03T11:18:32;3.27;;;0.88;;
58978;SDS011;44763;50.464;30.612;2022-07-03T11:21:11;4.10;;;1.10;;
58978;SDS011;44763;50.464;30.612;2022-07-03T11:24:02;4.30;;;0.98;;
58978;SDS011;44763;50.464;30.612;2022-07-03T11:27:10;2.98;;;0.95;;
58978;SDS011;44763;50.464;30.612;2022-07-03T11:29:37;3.25;;;0.80;;
58978;SDS011;44763;50.464;30.612;2022-07-03T11:38:15;1.50;;;1.32;;
58978;SDS011;44763;50.464;30.612;2022-07-03T11:40:45;1.80;;;1.70;;
58978;SDS011;44763;50.464;30.612;2022-07-03T11:43:13;2.60;;;1.70;;
58978;SDS011;44763;50.464;30.612;2022-07-03T11:45:40;2.47;;;2.00;;
58978;SDS011;44763;50.464;30.612;2022-07-03T11:48:11;3.67;;;2.70;;
58978;SDS011;44763;50.464;30.612;2022-07-03T11:50:41;5.10;;;2.40;;
58978;SDS011;44763;50.464;30.612;2022-07-03T11:55:54;2.58;;;1.62;;
58978;SDS011;44763;50.464;30.612;2022-07-03T12:06:50;2.47;;;1.37;;
58978;SDS011;44763;50.464;30.612;2022-07-03T12:09:28;1.35;;;1.25;;
58978;SDS011;44763;50.464;30.612;2022-07-03T12:12:00;6.40;;;1.70;;
58978;SDS011;44763;50.464;30.612;2022-07-03T12:14:45;3.10;;;2.08;;
58978;SDS011;44763;50.464;30.612;2022-07-03T12:17:19;3.40;;;1.70;;
58978;SDS011;44763;50.464;30.612;2022-07-03T12:19:53;2.60;;;1.42;;
58978;SDS011;44763;50.464;30.612;2022-07-03T12:22:26;1.92;;;1.82;;
58978;SDS011;44763;50.464;30.612;2022-07-03T12:25:01;3.60;;;1.45;;
58978;SDS011;44763;50.464;30.612;2022-07-03T12:27:34;3.35;;;1.77;;
58978;SDS011;44763;50.464;30.612;2022-07-03T12:30:07;2.98;;;1.57;;
58978;SDS011;44763;50.464;30.612;2022-07-03T12:32:37;2.67;;;1.50;;
58978;SDS011;44763;50.464;30.612;2022-07-03T12:35:06;3.52;;;1.55;;
58978;SDS011;44763;50.464;30.612;2022-07-03T12:37:40;2.75;;;1.40;;
58978;SDS011;44763;50.464;30.612;2022-07-03T12:40:09;2.13;;;1.60;;
58978;SDS011;44763;50.464;30.612;2022-07-03T12:42:44;3.00;;;1.65;;
58978;SDS011;44763;50.464;30.612;2022-07-03T12:45:20;9.28;;;1.62;;
58978;SDS011;44763;50.464;30.612;2022-07-03T12:47:58;3.92;;;2.55;;
58978;SDS011;44763;50.464;30.612;2022-07-03T12:50:46;8.35;;;2.33;;
58978;SDS011;44763;50.464;30.612;2022-07-03T12:56:04;2.75;;;2.20;;
58978;SDS011;44763;50.464;30.612;2022-07-03T12:58:40;4.62;;;2.72;;
58978;SDS011;44763;50.464;30.612;2022-07-03T13:03:40;2.55;;;1.65;;
58978;SDS011;44763;50.464;30.612;2022-07-03T13:06:12;4.42;;;1.87;;
58978;SDS011;44763;50.464;30.612;2022-07-03T13:08:51;3.72;;;1.72;;
58978;SDS011;44763;50.464;30.612;2022-07-03T13:11:30;6.70;;;1.80;;
58978;SDS011;44763;50.464;30.612;2022-07-03T13:14:12;4.78;;;2.42;;
58978;SDS011;44763;50.464;30.612;2022-07-03T13:19:18;3.05;;;2.17;;
58978;SDS011;44763;50.464;30.612;2022-07-03T13:21:47;4.53;;;1.60;;
58978;SDS011;44763;50.464;30.612;2022-07-03T13:24:15;4.05;;;2.02;;
58978;SDS011;44763;50.464;30.612;2022-07-03T13:26:44;3.50;;;2.00;;
58978;SDS011;44763;50.464;30.612;2022-07-03T13:29:12;4.65;;;2.08;;
58978;SDS011;44763;50.464;30.612;2022-07-03T13:31:39;6.55;;;2.35;;
58978;SDS011;44763;50.464;30.612;2022-07-03T13:34:05;4.10;;;2.40;;
58978;SDS011;44763;50.464;30.612;2022-07-03T13:36:32;5.72;;;1.82;;
58978;SDS011;44763;50.464;30.612;2022-07-03T13:38:59;2.65;;;2.45;;
58978;SDS011;44763;50.464;30.612;2022-07-03T13:41:26;5.25;;;2.58;;
58978;SDS011;44763;50.464;30.612;2022-07-03T13:43:53;1.90;;;1.80;;
58978;SDS011;44763;50.464;30.612;2022-07-03T13:46:21;3.83;;;1.95;;
58978;SDS011;44763;50.464;30.612;2022-07-03T13:48:48;1.67;;;1.57;;
58978;SDS011;44763;50.464;30.612;2022-07-03T13:51:16;5.15;;;4.75;;
58978;SDS011;44763;50.464;30.612;2022-07-03T13:53:42;3.65;;;2.55;;
58978;SDS011;44763;50.464;30.612;2022-07-03T13:56:08;1.57;;;1.45;;
58978;SDS011;44763;50.464;30.612;2022-07-03T13:58:35;1.77;;;1.42;;
58978;SDS011;44763;50.464;30.612;2022-07-03T14:01:02;3.50;;;2.37;;
58978;SDS011;44763;50.464;30.612;2022-07-03T14:03:28;4.20;;;1.90;;
58978;SDS011;44763;50.464;30.612;2022-07-03T14:05:56;1.22;;;1.00;;
58978;SDS011;44763;50.464;30.612;2022-07-03T14:08:23;1.65;;;1.55;;
58978;SDS011;44763;50.464;30.612;2022-07-03T14:10:51;3.83;;;1.30;;
58978;SDS011;44763;50.464;30.612;2022-07-03T14:13:17;1.65;;;1.27;;
58978;SDS011;44763;50.464;30.612;2022-07-03T14:15:43;1.25;;;1.25;;
58978;SDS011;44763;50.464;30.612;2022-07-03T14:18:11;3.50;;;0.65;;
58978;SDS011;44763;50.464;30.612;2022-07-03T14:20:38;1.22;;;0.72;;
58978;SDS011;44763;50.464;30.612;2022-07-03T14:23:04;1.15;;;1.07;;
58978;SDS011;44763;50.464;30.612;2022-07-03T14:25:30;4.28;;;0.90;;
58978;SDS011;44763;50.464;30.612;2022-07-03T14:27:56;1.12;;;0.80;;
58978;SDS011;44763;50.464;30.612;2022-07-03T14:30:41;0.85;;;0.50;;
58978;SDS011;44763;50.464;30.612;2022-07-03T14:33:26;1.72;;;0.68;;
58978;SDS011;44763;50.464;30.612;2022-07-03T14:35:52;3.72;;;0.90;;
58978;SDS011;44763;50.464;30.612;2022-07-03T14:38:19;2.27;;;0.95;;
58978;SDS011;44763;50.464;30.612;2022-07-03T14:40:47;1.62;;;1.10;;
58978;SDS011;44763;50.464;30.612;2022-07-03T14:43:13;1.50;;;1.07;;
58978;SDS011;44763;50.464;30.612;2022-07-03T14:45:39;1.57;;;1.40;;
58978;SDS011;44763;50.464;30.612;2022-07-03T14:48:06;2.67;;;0.70;;
58978;SDS011;44763;50.464;30.612;2022-07-03T14:50:32;1.90;;;1.20;;
58978;SDS011;44763;50.464;30.612;2022-07-03T14:52:59;1.20;;;1.07;;
58978;SDS011;44763;50.464;30.612;2022-07-03T14:55:27;3.15;;;1.20;;
58978;SDS011;44763;50.464;30.612;2022-07-03T14:58:04;3.58;;;1.45;;
58978;SDS011;44763;50.464;30.612;2022-07-03T15:00:35;1.50;;;1.05;;
58978;SDS011;44763;50.464;30.612;2022-07-03T15:03:08;3.90;;;1.27;;
58978;SDS011;44763;50.464;30.612;2022-07-03T15:05:54;1.90;;;1.07;;
58978;SDS011;44763;50.464;30.612;2022-07-03T15:11:07;5.75;;;1.62;;
58978;SDS011;44763;50.464;30.612;2022-07-03T15:13:40;2.37;;;1.10;;
58978;SDS011;44763;50.464;30.612;2022-07-03T15:16:07;2.17;;;1.05;;
58978;SDS011;44763;50.464;30.612;2022-07-03T15:18:35;4.40;;;1.02;;
58978;SDS011;44763;50.464;30.612;2022-07-03T15:21:04;1.45;;;1.35;;
58978;SDS011;44763;50.464;30.612;2022-07-03T15:23:31;4.58;;;1.57;;
58978;SDS011;44763;50.464;30.612;2022-07-03T15:25:59;2.77;;;1.72;;
58978;SDS011;44763;50.464;30.612;2022-07-03T15:28:29;3.58;;;1.25;;
58978;SDS011;44763;50.464;30.612;2022-07-03T15:30:57;1.12;;;1.12;;
58978;SDS011;44763;50.464;30.612;2022-07-03T15:33:23;4.03;;;1.05;;
58978;SDS011;44763;50.464;30.612;2022-07-03T15:35:55;3.20;;;1.10;;
58978;SDS011;44763;50.464;30.612;2022-07-03T15:38:44;1.77;;;1.30;;
58978;SDS011;44763;50.464;30.612;2022-07-03T15:41:05;3.33;;;1.35;;
58978;SDS011;44763;50.464;30.612;2022-07-03T15:43:44;3.80;;;1.30;;
58978;SDS011;44763;50.464;30.612;2022-07-03T15:49:31;6.35;;;1.00;;
58978;SDS011;44763;50.464;30.612;2022-07-03T15:52:18;1.67;;;1.37;;
58978;SDS011;44763;50.464;30.612;2022-07-03T15:57:33;4.45;;;1.25;;
58978;SDS011;44763;50.464;30.612;2022-07-03T16:00:23;1.10;;;1.10;;
58978;SDS011;44763;50.464;30.612;2022-07-03T16:03:01;3.30;;;1.40;;
58978;SDS011;44763;50.464;30.612;2022-07-03T16:05:48;3.62;;;1.35;;
58978;SDS011;44763;50.464;30.612;2022-07-03T16:08:16;5.97;;;1.67;;
58978;SDS011;44763;50.464;30.612;2022-07-03T16:10:45;2.62;;;1.60;;
58978;SDS011;44763;50.464;30.612;2022-07-03T16:13:12;3.15;;;1.92;;
58978;SDS011;44763;50.464;30.612;2022-07-03T16:15:43;3.45;;;2.95;;
58978;SDS011;44763;50.464;30.612;2022-07-03T16:18:10;6.50;;;2.33;;
58978;SDS011;44763;50.464;30.612;2022-07-03T16:20:38;4.47;;;2.02;;
58978;SDS011;44763;50.464;30.612;2022-07-03T16:23:06;7.75;;;2.87;;
58978;SDS011;44763;50.464;30.612;2022-07-03T16:25:36;4.33;;;2.37;;
58978;SDS011;44763;50.464;30.612;2022-07-03T16:28:10;3.92;;;2.12;;
58978;SDS011;44763;50.464;30.612;2022-07-03T16:30:43;6.70;;;1.82;;
58978;SDS011;44763;50.464;30.612;2022-07-03T16:33:10;3.00;;;2.37;;
58978;SDS011;44763;50.464;30.612;2022-07-03T16:35:46;3.62;;;2.10;;
58978;SDS011;44763;50.464;30.612;2022-07-03T16:38:25;5.95;;;2.65;;
58978;SDS011;44763;50.464;30.612;2022-07-03T16:40:57;5.53;;;2.47;;
58978;SDS011;44763;50.464;30.612;2022-07-03T16:43:26;5.25;;;2.58;;